Time;durP1;ratioP1;P1;durP2;ratioP2;P2;SDS_P1;SDS_P2;PMS_P1;PMS_P2;Temp;Humidity;BMP_temperature;BMP_pressure;BME280_temperature;BME280_humidity;BME280_pressure;Samples;Min_cycle;Max_cycle;Signal;HPM_P1;HPM_P2
2021/07/25 00:02:10;;;;;;;;;;;;;;;;;;5069584;28;19921;-63
2021/07/25 00:04:36;;;;;;;;;;;;;;;;;;5069343;28;20322;-63
2021/07/25 00:07:02;;;;;;;;;;;;;;;;;;5072439;28;19909;-63
2021/07/25 00:09:28;;;;;;;;;;;;;;;;;;5071405;28;19926;-63
2021/07/25 00:11:54;;;;;;;;;;;;;;;;;;5068887;28;19918;-63
2021/07/25 00:14:20;;;;;;;;;;;;;;;;;;5068929;28;19952;-63
2021/07/25 00:16:46;;;;;;;;;;;;;;;;;;5069103;28;20330;-63
2021/07/25 00:19:12;;;;;;;;;;;;;;;;;;5071759;28;20320;-62
2021/07/25 00:21:38;;;;;;;;;;;;;;;;;;5070137;28;19917;-63
2021/07/25 00:24:04;;;;;;;;;;;;;;;;;;5068388;28;20045;-63
2021/07/25 00:26:37;;;;;;;;;;;;;;;;;;5068970;28;20284;-63
2021/07/25 00:29:03;;;;;;;;;;;;;;;;;;5069022;28;19920;-63
2021/07/25 00:31:29;;;;;;;;;;;;;;;;;;5069659;28;19920;-63
2021/07/25 00:33:55;;;;;;;;;;;;;;;;;;5071886;28;20013;-63
2021/07/25 00:36:21;;;;;;;;;;;;;;;;;;5068740;28;19951;-62
2021/07/25 00:38:47;;;;;;;;;;;;;;;;;;5068990;28;20279;-63
2021/07/25 00:41:13;;;;;;;;;;;;;;;;;;5069113;28;19928;-62
2021/07/25 00:43:39;;;;;;;;;;;;;;;;;;5068456;28;20418;-63
2021/07/25 00:46:04;;;;;;;;;;;;;;;;;;5071717;28;19908;-62
2021/07/25 00:48:30;;;;;;;;;;;;;;;;;;5069700;28;19917;-62
2021/07/25 00:50:56;;;;;;;;;;;;;;;;;;5068978;28;20014;-63
2021/07/25 00:53:22;;;;;;;;;;;;;;;;;;5069011;28;19955;-62
2021/07/25 00:55:48;;;;;;;;;;;;;;;;;;5068586;28;19912;-62
2021/07/25 00:58:14;;;;;;;;;;;;;;;;;;5069632;28;20023;-63
2021/07/25 01:00:40;;;;;;;;;;;;;;;;;;5069989;28;20023;-63
2021/07/25 01:03:06;;;;;;;;;;;;;;;;;;5068745;28;19922;-63
2021/07/25 01:05:32;;;;;;;;;;;;;;;;;;5068422;28;19958;-63
2021/07/25 01:07:57;;;;;;;;;;;;;;;;;;5068907;28;19913;-63
2021/07/25 01:10:23;;;;;;;;;;;;;;;;;;5069874;28;19927;-63
2021/07/25 01:12:49;;;;;;;;;;;;;;;;;;5070658;28;19941;-63
2021/07/25 01:15:15;;;;;;;;;;;;;;;;;;5068241;28;19912;-63
2021/07/25 01:17:41;;;;;;;;;;;;;;;;;;5068760;28;19917;-63
2021/07/25 01:20:07;;;;;;;;;;;;;;;;;;5068389;28;20430;-62
2021/07/25 01:22:33;;;;;;;;;;;;;;;;;;5068850;28;19920;-63
2021/07/25 01:24:59;;;;;;;;;;;;;;;;;;5071992;28;19909;-63
2021/07/25 01:27:25;;;;;;;;;;;;;;;;;;5068119;28;19916;-63
2021/07/25 01:29:50;;;;;;;;;;;;;;;;;;5068464;28;19919;-63
2021/07/25 01:32:17;;;;;;;;;;;;;;;;;;5068663;28;19916;-63
2021/07/25 01:34:42;;;;;;;;;;;;;;;;;;5068573;28;19944;-63
2021/07/25 01:37:08;;;;;;;;;;;;;;;;;;5070620;28;19939;-63
2021/07/25 01:39:34;;;;;;;;;;;;;;;;;;5070900;28;19908;-63
2021/07/25 01:42:00;;;;;;;;;;;;;;;;;;5067904;28;20372;-64
2021/07/25 01:44:26;;;;;;;;;;;;;;;;;;5068244;28;19923;-63
2021/07/25 01:46:52;;;;;;;;;;;;;;;;;;5068098;28;19939;-63
2021/07/25 01:49:18;;;;;;;;;;;;;;;;;;5070659;28;19962;-63
2021/07/25 01:51:44;;;;;;;;;;;;;;;;;;5069823;28;20253;-64
2021/07/25 01:54:10;;;;;;;;;;;;;;;;;;5068407;28;20280;-63
2021/07/25 01:56:35;;;;;;;;;;;;;;;;;;5068049;28;19912;-63
2021/07/25 01:59:01;;;;;;;;;;;;;;;;;;5068060;28;19913;-63
2021/07/25 02:01:27;;;;;;;;;;;;;;;;;;5069124;28;20037;-63
2021/07/25 02:03:53;;;;;;;;;;;;;;;;;;5070900;28;19930;-63
2021/07/25 02:06:19;;;;;;;;;;;;;;;;;;5068107;28;19912;-63
2021/07/25 02:08:45;;;;;;;;;;;;;;;;;;5068430;28;20419;-63
2021/07/25 02:11:11;;;;;;;;;;;;;;;;;;5071344;28;19912;-63
2021/07/25 02:13:37;;;;;;;;;;;;;;;;;;5071741;28;19926;-63
2021/07/25 02:16:02;;;;;;;;;;;;;;;;;;5074916;28;20283;-63
2021/07/25 02:18:28;;;;;;;;;;;;;;;;;;5073629;28;19966;-64
2021/07/25 02:20:54;;;;;;;;;;;;;;;;;;5071003;28;19963;-63
2021/07/25 02:23:20;;;;;;;;;;;;;;;;;;5071210;28;19913;-64
2021/07/25 02:25:46;;;;;;;;;;;;;;;;;;5071397;28;19923;-63
2021/07/25 02:28:12;;;;;;;;;;;;;;;;;;5073913;28;19908;-63
2021/07/25 02:30:38;;;;;;;;;;;;;;;;;;5072789;28;19909;-63
2021/07/25 02:33:04;;;;;;;;;;;;;;;;;;5071034;28;20272;-63
2021/07/25 02:35:30;;;;;;;;;;;;;;;;;;5071155;28;19913;-63
2021/07/25 02:37:55;;;;;;;;;;;;;;;;;;5071223;28;19935;-63
2021/07/25 02:40:21;;;;;;;;;;;;;;;;;;5072732;28;19908;-63
2021/07/25 02:42:47;;;;;;;;;;;;;;;;;;5073225;28;20371;-63
2021/07/25 02:45:13;;;;;;;;;;;;;;;;;;5070814;28;19912;-63
2021/07/25 02:47:39;;;;;;;;;;;;;;;;;;5070825;28;20402;-63
2021/07/25 02:50:05;;;;;;;;;;;;;;;;;;5071208;28;19992;-63
2021/07/25 02:52:31;;;;;;;;;;;;;;;;;;5055411;28;19913;-64
2021/07/25 02:54:56;;;;;;;;;;;;;;;;;;5073880;28;19916;-63
2021/07/25 02:57:22;;;;;;;;;;;;;;;;;;5070725;28;20462;-63
2021/07/25 02:59:48;;;;;;;;;;;;;;;;;;5070436;28;19919;-63
2021/07/25 03:02:14;;;;;;;;;;;;;;;;;;5070699;28;19927;-63
2021/07/25 03:04:41;;;;;;;;;;;;;;;;;;5070717;28;19939;-63
2021/07/25 03:07:07;;;;;;;;;;;;;;;;;;5073263;28;20360;-63
2021/07/25 03:09:33;;;;;;;;;;;;;;;;;;5071481;28;19916;-64
2021/07/25 03:11:59;;;;;;;;;;;;;;;;;;5070128;28;19963;-63
2021/07/25 03:14:25;;;;;;;;;;;;;;;;;;5070570;28;19969;-63
2021/07/25 03:16:50;;;;;;;;;;;;;;;;;;5070698;28;19912;-63
2021/07/25 03:19:16;;;;;;;;;;;;;;;;;;5072435;28;20391;-63
2021/07/25 03:21:43;;;;;;;;;;;;;;;;;;5070879;28;19975;-63
2021/07/25 03:24:08;;;;;;;;;;;;;;;;;;5069888;28;19916;-63
2021/07/25 03:26:34;;;;;;;;;;;;;;;;;;5070409;28;19912;-63
2021/07/25 03:29:00;;;;;;;;;;;;;;;;;;5070466;28;20340;-63
2021/07/25 03:31:26;;;;;;;;;;;;;;;;;;5071323;28;19923;-63
2021/07/25 03:33:53;;;;;;;;;;;;;;;;;;5072930;28;20435;-63
2021/07/25 03:36:21;;;;;;;;;;;;;;;;;;5069772;28;19918;-63
2021/07/25 03:38:47;;;;;;;;;;;;;;;;;;5069661;28;20364;-63
2021/07/25 03:41:13;;;;;;;;;;;;;;;;;;5069816;28;19922;-63
2021/07/25 03:43:39;;;;;;;;;;;;;;;;;;5052082;28;20015;-63
2021/07/25 03:46:05;;;;;;;;;;;;;;;;;;5073120;28;19909;-63
2021/07/25 03:48:30;;;;;;;;;;;;;;;;;;5070160;28;20053;-63
2021/07/25 03:50:57;;;;;;;;;;;;;;;;;;5069825;28;19916;-63
2021/07/25 03:53:22;;;;;;;;;;;;;;;;;;5069744;28;19919;-63
2021/07/25 03:55:48;;;;;;;;;;;;;;;;;;5069845;28;20311;-63
2021/07/25 03:58:14;;;;;;;;;;;;;;;;;;5071446;28;20288;-63
2021/07/25 04:00:40;;;;;;;;;;;;;;;;;;5070963;28;20376;-63
2021/07/25 04:03:06;;;;;;;;;;;;;;;;;;5069863;28;20011;-63
2021/07/25 04:05:32;;;;;;;;;;;;;;;;;;5069179;28;19916;-63
2021/07/25 04:07:58;;;;;;;;;;;;;;;;;;5069373;28;19912;-64
2021/07/25 04:10:24;;;;;;;;;;;;;;;;;;5070800;28;20272;-64
2021/07/25 04:12:50;;;;;;;;;;;;;;;;;;5071565;28;19925;-64
2021/07/25 04:15:16;;;;;;;;;;;;;;;;;;5069099;28;20393;-64
2021/07/25 04:17:42;;;;;;;;;;;;;;;;;;5069181;28;20275;-64
2021/07/25 04:20:07;;;;;;;;;;;;;;;;;;5069497;28;20352;-64
2021/07/25 04:22:33;;;;;;;;;;;;;;;;;;5069226;28;19947;-64
2021/07/25 04:24:59;;;;;;;;;;;;;;;;;;5072350;28;19908;-64
2021/07/25 04:27:26;;;;;;;;;;;;;;;;;;5069122;28;19916;-64
2021/07/25 04:29:52;;;;;;;;;;;;;;;;;;5068709;28;19919;-64
2021/07/25 04:32:18;;;;;;;;;;;;;;;;;;5068714;28;19913;-64
2021/07/25 04:34:45;;;;;;;;;;;;;;;;;;5068997;28;20276;-63
2021/07/25 04:37:21;;;;;;;;;;;;;;;;;;5071048;28;20261;-63
2021/07/25 04:39:47;;;;;;;;;;;;;;;;;;5070258;28;19908;-63
2021/07/25 04:42:13;;;;;;;;;;;;;;;;;;5068704;28;20018;-63
2021/07/25 04:44:39;;;;;;;;;;;;;;;;;;5068920;28;19912;-63
2021/07/25 04:47:05;;;;;;;;;;;;;;;;;;5068653;28;19912;-63
2021/07/25 04:49:31;;;;;;;;;;;;;;;;;;5052959;28;19959;-64
2021/07/25 04:51:57;;;;;;;;;;;;;;;;;;5071575;28;19917;-63
2021/07/25 04:54:23;;;;;;;;;;;;;;;;;;5068851;28;19913;-64
2021/07/25 04:56:51;;;;;;;;;;;;;;;;;;5068309;28;19920;-63
2021/07/25 04:59:17;;;;;;;;;;;;;;;;;;5068866;28;19916;-63
2021/07/25 05:01:43;;;;;;;;;;;;;;;;;;5050611;28;19928;-63
2021/07/25 05:04:08;;;;;;;;;;;;;;;;;;5071252;28;20362;-63
2021/07/25 05:06:34;;;;;;;;;;;;;;;;;;5069626;28;19996;-63
2021/07/25 05:09:00;;;;;;;;;;;;;;;;;;5068753;28;19924;-64
2021/07/25 05:11:26;;;;;;;;;;;;;;;;;;5068366;28;19920;-64
2021/07/25 05:13:52;;;;;;;;;;;;;;;;;;5068207;28;20003;-65
2021/07/25 05:16:21;;;;;;;;;;;;;;;;;;5070955;28;20284;-65
2021/07/25 05:18:47;;;;;;;;;;;;;;;;;;5070485;28;19908;-65
2021/07/25 05:21:13;;;;;;;;;;;;;;;;;;5068045;28;20375;-65
2021/07/25 05:23:39;;;;;;;;;;;;;;;;;;5068323;28;19916;-64
2021/07/25 05:26:05;;;;;;;;;;;;;;;;;;5068274;28;19913;-64
2021/07/25 05:28:31;;;;;;;;;;;;;;;;;;5069113;28;19934;-64
2021/07/25 05:30:56;;;;;;;;;;;;;;;;;;5071739;28;19958;-64
2021/07/25 05:33:22;;;;;;;;;;;;;;;;;;5067927;28;19935;-64
2021/07/25 05:35:48;;;;;;;;;;;;;;;;;;5068229;28;20010;-66
2021/07/25 05:38:14;;;;;;;;;;;;;;;;;;5068391;28;20372;-66
2021/07/25 05:40:40;;;;;;;;;;;;;;;;;;5067973;28;19913;-66
2021/07/25 05:43:06;;;;;;;;;;;;;;;;;;5071574;28;19973;-66
2021/07/25 05:45:32;;;;;;;;;;;;;;;;;;5071758;28;19915;-66
2021/07/25 05:47:58;;;;;;;;;;;;;;;;;;5071904;28;20007;-67
2021/07/25 05:50:24;;;;;;;;;;;;;;;;;;5071887;28;20363;-67
2021/07/25 05:52:50;;;;;;;;;;;;;;;;;;5071937;28;19913;-67
2021/07/25 05:55:15;;;;;;;;;;;;;;;;;;5074476;28;20284;-67
2021/07/25 05:57:41;;;;;;;;;;;;;;;;;;5073414;28;19988;-67
2021/07/25 06:00:07;;;;;;;;;;;;;;;;;;5071377;28;19970;-66
2021/07/25 06:02:33;;;;;;;;;;;;;;;;;;5071744;28;20430;-67
2021/07/25 06:04:59;;;;;;;;;;;;;;;;;;5071782;28;19912;-66
2021/07/25 06:07:25;;;;;;;;;;;;;;;;;;5073141;28;20006;-66
2021/07/25 06:09:51;;;;;;;;;;;;;;;;;;5073932;28;20362;-66
2021/07/25 06:12:19;;;;;;;;;;;;;;;;;;5054987;28;20240;-66
2021/07/25 06:14:44;;;;;;;;;;;;;;;;;;5051288;28;19912;-66
2021/07/25 06:17:10;;;;;;;;;;;;;;;;;;5051048;28;19920;-66
2021/07/25 06:19:36;;;;;;;;;;;;;;;;;;5051863;28;19916;-67
2021/07/25 06:22:05;;;;;;;;;;;;;;;;;;5055286;28;20012;-67
2021/07/25 06:24:30;;;;;;;;;;;;;;;;;;5053204;28;19919;-67
2021/07/25 06:26:56;;;;;;;;;;;;;;;;;;5050939;28;20299;-67
2021/07/25 06:29:22;;;;;;;;;;;;;;;;;;5051615;28;19920;-67
2021/07/25 06:31:48;;;;;;;;;;;;;;;;;;5051331;28;20431;-67
2021/07/25 06:34:14;;;;;;;;;;;;;;;;;;5053817;28;19909;-67
2021/07/25 06:36:40;;;;;;;;;;;;;;;;;;5052892;28;19909;-67
2021/07/25 06:39:07;;;;;;;;;;;;;;;;;;5050995;28;20000;-68
2021/07/25 06:41:33;;;;;;;;;;;;;;;;;;5050731;28;19963;-68
2021/07/25 06:43:58;;;;;;;;;;;;;;;;;;5051310;28;19948;-69
2021/07/25 06:46:24;;;;;;;;;;;;;;;;;;5052213;28;20396;-68
2021/07/25 06:48:50;;;;;;;;;;;;;;;;;;5053517;28;19909;-67
2021/07/25 06:51:16;;;;;;;;;;;;;;;;;;5050439;28;19921;-68
2021/07/25 06:53:43;;;;;;;;;;;;;;;;;;5052643;28;19912;-68
2021/07/25 06:56:09;;;;;;;;;;;;;;;;;;5051974;28;19919;-72
2021/07/25 06:58:35;;;;;;;;;;;;;;;;;;5052721;28;19913;-67
2021/07/25 07:01:00;;;;;;;;;;;;;;;;;;5053926;28;20358;-67
2021/07/25 07:03:26;;;;;;;;;;;;;;;;;;5050632;28;19924;-67
2021/07/25 07:05:52;;;;;;;;;;;;;;;;;;5052335;28;19913;-66
2021/07/25 07:08:18;;;;;;;;;;;;;;;;;;5048488;28;19978;-68
2021/07/25 07:10:44;;;;;;;;;;;;;;;;;;5050794;28;20300;-68
2021/07/25 07:13:10;;;;;;;;;;;;;;;;;;5065256;28;19931;-68
2021/07/25 07:15:36;;;;;;;;;;;;;;;;;;5083033;28;19915;-68
2021/07/25 07:18:02;;;;;;;;;;;;;;;;;;5073652;28;19908;-68
2021/07/25 07:20:28;;;;;;;;;;;;;;;;;;5069909;28;19913;-70
2021/07/25 07:22:53;;;;;;;;;;;;;;;;;;5068596;28;19924;-69
2021/07/25 07:25:19;;;;;;;;;;;;;;;;;;5072441;28;19916;-71
2021/07/25 07:27:45;;;;;;;;;;;;;;;;;;5071927;28;19913;-72
2021/07/25 07:30:11;;;;;;;;;;;;;;;;;;5069257;28;20245;-72
2021/07/25 07:32:37;;;;;;;;;;;;;;;;;;5069621;28;19916;-72
2021/07/25 07:35:03;;;;;;;;;;;;;;;;;;5071946;28;20469;-71
2021/07/25 07:37:29;;;;;;;;;;;;;;;;;;5070740;28;20000;-71
2021/07/25 07:39:55;;;;;;;;;;;;;;;;;;5072192;28;20393;-69
2021/07/25 07:42:20;;;;;;;;;;;;;;;;;;5069911;28;19924;-70
2021/07/25 07:44:46;;;;;;;;;;;;;;;;;;5068296;28;20575;-70
2021/07/25 07:47:12;;;;;;;;;;;;;;;;;;5067854;28;19913;-70
2021/07/25 07:49:38;;;;;;;;;;;;;;;;;;5070181;28;19959;-71
2021/07/25 07:52:04;;;;;;;;;;;;;;;;;;5072435;28;20314;-70
2021/07/25 07:54:30;;;;;;;;;;;;;;;;;;5071576;28;19916;-70
2021/07/25 07:56:56;;;;;;;;;;;;;;;;;;5070116;28;19912;-70
2021/07/25 07:59:22;;;;;;;;;;;;;;;;;;5062941;28;19916;-69
2021/07/25 08:01:48;;;;;;;;;;;;;;;;;;5069219;28;20007;-68
2021/07/25 08:04:13;;;;;;;;;;;;;;;;;;5071143;28;19920;-68
2021/07/25 08:06:39;;;;;;;;;;;;;;;;;;5073112;28;19912;-68
2021/07/25 08:09:05;;;;;;;;;;;;;;;;;;5058629;28;19909;-68
2021/07/25 08:11:32;;;;;;;;;;;;;;;;;;5064002;28;19952;-67
2021/07/25 08:13:58;;;;;;;;;;;;;;;;;;5068716;28;19920;-68
2021/07/25 08:16:24;;;;;;;;;;;;;;;;;;5071498;28;19926;-67
2021/07/25 08:18:50;;;;;;;;;;;;;;;;;;5071731;28;20387;-68
2021/07/25 08:21:16;;;;;;;;;;;;;;;;;;5057235;28;19916;-66
2021/07/25 08:23:42;;;;;;;;;;;;;;;;;;5068809;28;19917;-68
2021/07/25 08:26:08;;;;;;;;;;;;;;;;;;5075173;28;19951;-69
2021/07/25 08:28:33;;;;;;;;;;;;;;;;;;5069211;28;20326;-67
2021/07/25 08:30:59;;;;;;;;;;;;;;;;;;5072379;28;19915;-67
2021/07/25 08:33:25;;;;;;;;;;;;;;;;;;5057612;28;20284;-66
2021/07/25 08:35:51;;;;;;;;;;;;;;;;;;5072385;28;19963;-67
2021/07/25 08:38:17;;;;;;;;;;;;;;;;;;5069192;28;19917;-65
2021/07/25 08:40:43;;;;;;;;;;;;;;;;;;5069655;28;19941;-65
2021/07/25 08:43:09;;;;;;;;;;;;;;;;;;5071133;28;19919;-66
2021/07/25 08:45:35;;;;;;;;;;;;;;;;;;5075625;28;20284;-65
2021/07/25 08:48:03;;;;;;;;;;;;;;;;;;5049581;28;19923;-67
2021/07/25 08:50:29;;;;;;;;;;;;;;;;;;5070973;28;19913;-69
2021/07/25 08:52:55;;;;;;;;;;;;;;;;;;5058194;28;20275;-67
2021/07/25 08:55:21;;;;;;;;;;;;;;;;;;5070460;28;19908;-67
2021/07/25 08:57:47;;;;;;;;;;;;;;;;;;5074354;28;19912;-68
2021/07/25 09:00:13;;;;;;;;;;;;;;;;;;5061289;28;20432;-69
2021/07/25 09:02:39;;;;;;;;;;;;;;;;;;5064728;28;19931;-68
2021/07/25 09:05:05;;;;;;;;;;;;;;;;;;5066418;28;19913;-68
2021/07/25 09:07:30;;;;;;;;;;;;;;;;;;5068469;28;19927;-67
2021/07/25 09:09:56;;;;;;;;;;;;;;;;;;5073306;28;20011;-69
2021/07/25 09:12:22;;;;;;;;;;;;;;;;;;5063895;28;19931;-69
2021/07/25 09:14:49;;;;;;;;;;;;;;;;;;5052212;28;20292;-68
2021/07/25 09:17:15;;;;;;;;;;;;;;;;;;5067747;28;19920;-69
2021/07/25 09:19:40;;;;;;;;;;;;;;;;;;5068757;28;19912;-68
2021/07/25 09:22:06;;;;;;;;;;;;;;;;;;5075598;28;19920;-69
2021/07/25 09:24:32;;;;;;;;;;;;;;;;;;5059229;28;20011;-69
2021/07/25 09:26:58;;;;;;;;;;;;;;;;;;5070436;28;19913;-69
2021/07/25 09:29:24;;;;;;;;;;;;;;;;;;5073887;28;20392;-69
2021/07/25 09:31:50;;;;;;;;;;;;;;;;;;5046921;28;19913;-70
2021/07/25 09:34:16;;;;;;;;;;;;;;;;;;5072679;28;20413;-70
2021/07/25 09:36:42;;;;;;;;;;;;;;;;;;5070287;28;19995;-69
2021/07/25 09:39:08;;;;;;;;;;;;;;;;;;5071038;28;20007;-71
2021/07/25 09:41:34;;;;;;;;;;;;;;;;;;5074666;28;19927;-70
2021/07/25 09:44:00;;;;;;;;;;;;;;;;;;5059259;28;19963;-69
2021/07/25 09:46:26;;;;;;;;;;;;;;;;;;5072311;28;19919;-68
2021/07/25 09:48:53;;;;;;;;;;;;;;;;;;5074739;28;19912;-68
2021/07/25 09:51:19;;;;;;;;;;;;;;;;;;5074638;28;19967;-71
2021/07/25 09:53:45;;;;;;;;;;;;;;;;;;5070044;28;20441;-67
2021/07/25 09:56:11;;;;;;;;;;;;;;;;;;5054022;28;19913;-69
2021/07/25 09:58:37;;;;;;;;;;;;;;;;;;5071976;28;19924;-70
2021/07/25 10:01:03;;;;;;;;;;;;;;;;;;5074665;28;19916;-67
2021/07/25 10:03:35;;;;;;;;;;;;;;;;;;5071848;28;20326;-68
2021/07/25 10:06:01;;;;;;;;;;;;;;;;;;5070780;28;19924;-72
2021/07/25 10:08:27;;;;;;;;;;;;;;;;;;5068182;28;19928;-68
2021/07/25 10:10:54;;;;;;;;;;;;;;;;;;5065524;28;20310;-69
2021/07/25 10:13:21;;;;;;;;;;;;;;;;;;5004881;28;1911832;-67
2021/07/25 10:15:46;;;;;;;;;;;;;;;;;;5070448;28;19923;-70
2021/07/25 10:18:12;;;;;;;;;;;;;;;;;;5070031;28;19915;-69
2021/07/25 10:20:38;;;;;;;;;;;;;;;;;;5074366;28;19916;-69
2021/07/25 10:23:04;;;;;;;;;;;;;;;;;;5062912;28;19917;-69
2021/07/25 10:25:30;;;;;;;;;;;;;;;;;;5063977;28;19920;-69
2021/07/25 10:27:58;;;;;;;;;;;;;;;;;;5083888;28;19908;-71
2021/07/25 10:30:24;;;;;;;;;;;;;;;;;;5072004;28;19943;-68
2021/07/25 10:32:51;;;;;;;;;;;;;;;;;;5069338;28;20009;-69
2021/07/25 10:35:18;;;;;;;;;;;;;;;;;;5053954;28;19928;-70
2021/07/25 10:37:46;;;;;;;;;;;;;;;;;;5069846;28;19993;-68
2021/07/25 10:40:13;;;;;;;;;;;;;;;;;;5074084;28;19921;-69
2021/07/25 10:42:39;;;;;;;;;;;;;;;;;;5037198;28;19917;-70
2021/07/25 10:45:05;;;;;;;;;;;;;;;;;;5071115;28;20425;-67
2021/07/25 10:47:31;;;;;;;;;;;;;;;;;;5059904;28;19919;-70
2021/07/25 10:49:57;;;;;;;;;;;;;;;;;;5072365;28;19966;-68
2021/07/25 10:52:23;;;;;;;;;;;;;;;;;;5069200;28;19912;-69
2021/07/25 10:54:49;;;;;;;;;;;;;;;;;;5072484;28;19908;-69
2021/07/25 10:57:15;;;;;;;;;;;;;;;;;;5071081;28;20275;-71
2021/07/25 10:59:41;;;;;;;;;;;;;;;;;;5033271;28;19913;-67
2021/07/25 11:02:07;;;;;;;;;;;;;;;;;;5074686;28;19939;-71
2021/07/25 11:04:33;;;;;;;;;;;;;;;;;;5067657;28;19912;-73
2021/07/25 11:06:59;;;;;;;;;;;;;;;;;;5072593;28;20351;-68
2021/07/25 11:09:25;;;;;;;;;;;;;;;;;;5061062;28;19912;-70
2021/07/25 11:11:51;;;;;;;;;;;;;;;;;;5075176;28;19999;-70
2021/07/25 11:14:17;;;;;;;;;;;;;;;;;;5072503;28;20427;-68
2021/07/25 11:16:46;;;;;;;;;;;;;;;;;;5067774;28;19913;-69
2021/07/25 11:19:13;;;;;;;;;;;;;;;;;;5071947;28;20430;-69
2021/07/25 11:21:43;;;;;;;;;;;;;;;;;;5072700;28;20022;-69
2021/07/25 11:24:10;;;;;;;;;;;;;;;;;;5059765;28;19919;-69
2021/07/25 11:26:36;;;;;;;;;;;;;;;;;;5060546;28;19912;-68
2021/07/25 11:29:02;;;;;;;;;;;;;;;;;;5070022;28;19916;-68
2021/07/25 11:31:28;;;;;;;;;;;;;;;;;;5053445;28;19913;-68
2021/07/25 11:33:54;;;;;;;;;;;;;;;;;;5071631;28;19983;-69
2021/07/25 11:36:19;;;;;;;;;;;;;;;;;;5066660;28;19912;-69
2021/07/25 11:38:45;;;;;;;;;;;;;;;;;;5068547;28;19995;-68
2021/07/25 11:41:12;;;;;;;;;;;;;;;;;;5068206;28;19959;-69
2021/07/25 11:43:38;;;;;;;;;;;;;;;;;;5062654;28;19990;-70
2021/07/25 11:46:03;;;;;;;;;;;;;;;;;;5072780;28;19923;-69
2021/07/25 11:48:29;;;;;;;;;;;;;;;;;;5069793;28;19920;-68
2021/07/25 11:50:55;;;;;;;;;;;;;;;;;;5055809;28;19931;-70
2021/07/25 11:53:22;;;;;;;;;;;;;;;;;;5073106;28;19919;-67
2021/07/25 11:55:48;;;;;;;;;;;;;;;;;;5168441;22;19917;-94
2021/07/25 11:58:14;;;;;;;;;;;;;;;;;;5069784;28;19917;-94
2021/07/25 12:00:40;;;;;;;;;;;;;;;;;;5079610;28;20275;-96
2021/07/25 12:03:06;;;;;;;;;;;;;;;;;;5058500;28;19924;-96
2021/07/25 12:05:32;;;;;;;;;;;;;;;;;;5051129;28;19913;-96
2021/07/25 12:07:58;;;;;;;;;;;;;;;;;;5067700;28;19912;-94
2021/07/25 12:10:24;;;;;;;;;;;;;;;;;;5061722;28;20020;-93
2021/07/25 12:12:50;;;;;;;;;;;;;;;;;;5072732;28;19955;-93
2021/07/25 12:15:16;;;;;;;;;;;;;;;;;;5049003;28;19987;-85
2021/07/25 12:17:47;;;;;;;;;;;;;;;;;;5048483;28;20362;-87
2021/07/25 12:20:13;;;;;;;;;;;;;;;;;;5051919;28;19990;-86
2021/07/25 12:22:38;;;;;;;;;;;;;;;;;;5046625;28;20027;-88
2021/07/25 12:25:04;;;;;;;;;;;;;;;;;;5048239;28;20342;-86
2021/07/25 12:27:30;;;;;;;;;;;;;;;;;;5051255;28;19916;-88
2021/07/25 12:29:56;;;;;;;;;;;;;;;;;;5050192;28;19996;-87
2021/07/25 12:32:22;;;;;;;;;;;;;;;;;;5051017;28;19913;-90
2021/07/25 12:34:48;;;;;;;;;;;;;;;;;;5047573;28;19912;-91
2021/07/25 12:37:14;;;;;;;;;;;;;;;;;;5040464;28;19909;-93
2021/07/25 12:39:40;;;;;;;;;;;;;;;;;;5055563;28;19909;-92
2021/07/25 12:42:05;;;;;;;;;;;;;;;;;;5051761;28;19929;-92
2021/07/25 12:44:31;;;;;;;;;;;;;;;;;;5046607;28;19971;-92
2021/07/25 12:46:57;;;;;;;;;;;;;;;;;;5047894;28;19916;-93
2021/07/25 12:49:23;;;;;;;;;;;;;;;;;;5051953;28;20361;-93
2021/07/25 12:51:49;;;;;;;;;;;;;;;;;;5069554;28;19920;-90
2021/07/25 12:54:15;;;;;;;;;;;;;;;;;;5065729;28;20449;-92
2021/07/25 12:56:41;;;;;;;;;;;;;;;;;;5048041;28;19935;-92
2021/07/25 12:59:09;;;;;;;;;;;;;;;;;;5049124;28;19939;-91
2021/07/25 13:04:00;;;;;;;;;;;;;;;;;;5055130;28;19931;-91
2021/07/25 13:06:26;;;;;;;;;;;;;;;;;;5055678;28;19909;-92
2021/07/25 13:08:52;;;;;;;;;;;;;;;;;;5054866;28;19908;-92
2021/07/25 13:11:18;;;;;;;;;;;;;;;;;;5056623;28;19920;-92
2021/07/25 13:13:44;;;;;;;;;;;;;;;;;;5052787;28;19931;-93
2021/07/25 13:16:16;;;;;;;;;;;;;;;;;;5057229;28;19913;-94
2021/07/25 13:18:42;;;;;;;;;;;;;;;;;;5056040;28;19913;-93
2021/07/25 13:21:08;;;;;;;;;;;;;;;;;;5059360;28;19970;-90
2021/07/25 13:23:34;;;;;;;;;;;;;;;;;;5060666;28;19919;-92
2021/07/25 13:26:00;;;;;;;;;;;;;;;;;;5055257;28;20343;-93
2021/07/25 13:28:26;;;;;;;;;;;;;;;;;;5056457;28;19912;-91
2021/07/25 13:30:52;;;;;;;;;;;;;;;;;;5055480;28;20284;-92
2021/07/25 13:33:18;;;;;;;;;;;;;;;;;;5059408;28;19962;-94
2021/07/25 13:35:44;;;;;;;;;;;;;;;;;;5066164;28;19960;-94
2021/07/25 13:38:10;;;;;;;;;;;;;;;;;;5062723;28;19916;-94
2021/07/25 13:40:36;;;;;;;;;;;;;;;;;;5066494;28;19924;-95
2021/07/25 13:43:09;;;;;;;;;;;;;;;;;;5073708;28;19916;-93
2021/07/25 13:45:35;;;;;;;;;;;;;;;;;;5083315;28;19901;-94
2021/07/25 13:48:01;;;;;;;;;;;;;;;;;;5081275;28;20022;-94
2021/07/25 13:50:29;;;;;;;;;;;;;;;;;;5049448;28;20067;-94
2021/07/25 13:52:55;;;;;;;;;;;;;;;;;;5040874;28;19909;-94
2021/07/25 13:55:21;;;;;;;;;;;;;;;;;;5055467;28;20025;-94
2021/07/25 13:57:47;;;;;;;;;;;;;;;;;;5055216;28;19992;-94
2021/07/25 14:00:13;;;;;;;;;;;;;;;;;;5056926;28;19912;-94
2021/07/25 14:02:39;;;;;;;;;;;;;;;;;;5060534;28;19967;-94
2021/07/25 14:05:05;;;;;;;;;;;;;;;;;;5074564;28;19913;-95
2021/07/25 14:07:30;;;;;;;;;;;;;;;;;;5058539;28;20466;-93
2021/07/25 14:09:56;;;;;;;;;;;;;;;;;;5075535;28;20012;-95
2021/07/25 14:12:22;;;;;;;;;;;;;;;;;;5056463;28;20390;-95
2021/07/25 14:14:48;;;;;;;;;;;;;;;;;;5073234;28;19913;-96
2021/07/25 14:17:14;;;;;;;;;;;;;;;;;;5065483;28;20357;-95
2021/07/25 14:19:40;;;;;;;;;;;;;;;;;;5060013;28;19916;-95
2021/07/25 14:22:06;;;;;;;;;;;;;;;;;;5080072;28;20346;-94
2021/07/25 14:24:32;;;;;;;;;;;;;;;;;;5059865;28;19912;-94
2021/07/25 14:26:59;;;;;;;;;;;;;;;;;;5060396;28;19913;-95
2021/07/25 14:29:25;;;;;;;;;;;;;;;;;;5060551;28;19947;-94
2021/07/25 14:31:51;;;;;;;;;;;;;;;;;;5073375;28;19912;-94
2021/07/25 14:34:17;;;;;;;;;;;;;;;;;;5078000;28;20013;-94
2021/07/25 14:36:43;;;;;;;;;;;;;;;;;;5061161;28;19919;-95
2021/07/25 14:39:09;;;;;;;;;;;;;;;;;;5058474;28;19920;-94
2021/07/25 14:41:37;;;;;;;;;;;;;;;;;;5059262;28;19924;-94
2021/07/25 14:44:03;;;;;;;;;;;;;;;;;;5068877;28;19940;-94
2021/07/25 14:46:29;;;;;;;;;;;;;;;;;;5089414;28;19913;-94
2021/07/25 14:48:55;;;;;;;;;;;;;;;;;;5057515;28;19916;-94
2021/07/25 14:51:21;;;;;;;;;;;;;;;;;;5068272;28;19913;-94
2021/07/25 14:53:47;;;;;;;;;;;;;;;;;;5059933;28;19921;-94
2021/07/25 14:56:13;;;;;;;;;;;;;;;;;;5073727;28;20384;-94
2021/07/25 14:58:39;;;;;;;;;;;;;;;;;;5057269;28;20050;-94
2021/07/25 15:01:05;;;;;;;;;;;;;;;;;;5059291;28;19909;-94
2021/07/25 15:03:31;;;;;;;;;;;;;;;;;;5075870;28;20316;-94
2021/07/25 15:05:57;;;;;;;;;;;;;;;;;;5057603;28;19920;-94
2021/07/25 15:08:23;;;;;;;;;;;;;;;;;;5047818;28;20365;-94
2021/07/25 15:10:48;;;;;;;;;;;;;;;;;;5060540;28;19916;-93
2021/07/25 15:13:15;;;;;;;;;;;;;;;;;;5055865;28;19909;-94
2021/07/25 15:15:41;;;;;;;;;;;;;;;;;;5083785;28;19909;-95
2021/07/25 15:18:07;;;;;;;;;;;;;;;;;;5052323;28;20388;-93
2021/07/25 15:20:36;;;;;;;;;;;;;;;;;;5056485;28;19920;-94
2021/07/25 15:23:01;;;;;;;;;;;;;;;;;;5057040;28;19928;-94
2021/07/25 15:25:27;;;;;;;;;;;;;;;;;;5062621;28;19955;-95
2021/07/25 15:27:53;;;;;;;;;;;;;;;;;;5070534;28;19913;-93
2021/07/25 15:30:19;;;;;;;;;;;;;;;;;;5061279;28;19916;-94
2021/07/25 15:32:45;;;;;;;;;;;;;;;;;;5061380;28;19920;-95
2021/07/25 15:35:11;;;;;;;;;;;;;;;;;;5075614;28;19920;-94
2021/07/25 15:37:37;;;;;;;;;;;;;;;;;;5055811;28;19932;-93
2021/07/25 15:40:03;;;;;;;;;;;;;;;;;;5068067;28;19948;-93
2021/07/25 15:42:29;;;;;;;;;;;;;;;;;;5050033;28;19920;-94
2021/07/25 15:44:55;;;;;;;;;;;;;;;;;;5053192;28;19912;-94
2021/07/25 15:47:21;;;;;;;;;;;;;;;;;;5070995;28;19919;-94
2021/07/25 15:49:47;;;;;;;;;;;;;;;;;;5047781;28;20364;-94
2021/07/25 15:52:13;;;;;;;;;;;;;;;;;;5056115;28;19909;-95
2021/07/25 15:54:39;;;;;;;;;;;;;;;;;;5060434;28;20008;-95
2021/07/25 15:57:04;;;;;;;;;;;;;;;;;;5051650;28;19927;-94
2021/07/25 15:59:30;;;;;;;;;;;;;;;;;;5052732;28;19912;-94
2021/07/25 16:01:56;;;;;;;;;;;;;;;;;;5052308;28;19916;-95
2021/07/25 16:04:22;;;;;;;;;;;;;;;;;;5052724;28;19913;-94
2021/07/25 16:06:48;;;;;;;;;;;;;;;;;;5053962;28;20402;-94
2021/07/25 16:09:14;;;;;;;;;;;;;;;;;;5055272;28;19912;-94
2021/07/25 16:11:42;;;;;;;;;;;;;;;;;;5060913;28;19913;-94
2021/07/25 16:14:08;;;;;;;;;;;;;;;;;;5070867;28;19905;-93
2021/07/25 16:16:34;;;;;;;;;;;;;;;;;;5067983;28;19952;-95
2021/07/25 16:19:00;;;;;;;;;;;;;;;;;;5055106;28;20357;-94
2021/07/25 16:21:25;;;;;;;;;;;;;;;;;;5069220;28;19912;-94
2021/07/25 16:23:51;;;;;;;;;;;;;;;;;;5066515;28;19916;-93
2021/07/25 16:26:17;;;;;;;;;;;;;;;;;;5059471;28;19923;-93
2021/07/25 16:28:44;;;;;;;;;;;;;;;;;;5069393;28;19913;-94
2021/07/25 16:31:09;;;;;;;;;;;;;;;;;;5068579;28;19970;-93
2021/07/25 16:33:35;;;;;;;;;;;;;;;;;;5061703;28;19912;-94
2021/07/25 16:36:01;;;;;;;;;;;;;;;;;;5086315;28;19916;-94
2021/07/25 16:38:27;;;;;;;;;;;;;;;;;;5070366;28;19913;-95
2021/07/25 16:40:53;;;;;;;;;;;;;;;;;;5072178;28;19940;-93